Bookmark and Share
Track history (hours):
 

Barbarossa

Last reported at 2013-Oct-12 16:16 UTC. Time now 2014-Apr-18 18:14 UTC.
Position N 38°45' E 002°33'.
Warning: this ship's position is months out of date.

Length 83 m; draft 5.3 m.

Type: Ship (hazmat cat A). MMSI: 236029000.

NotesDate/timePositionNaut miles runAvg speedWind from/ knotsBaromVisibWave heightAir tempDewpointWater temp
2013-Oct-12 16:16N 38°45' E 002°33'7 9.7
2013-Oct-12 15:33N 38°49' E 002°41'1010.0
2013-Oct-12 14:33N 38°54' E 002°52'1010.0
2013-Oct-12 13:33N 38°59' E 003°02'1010.1
2013-Oct-12 12:33N 39°05' E 003°13'1010.1
2013-Oct-12 11:33N 39°10' E 003°25'1010.0
2013-Oct-12 10:33N 39°15' E 003°36'277 8.9
2013-Oct-11 03:29N 42°28' E 007°60'7 6.5
2013-Oct-11 02:27N 42°32' E 008°06'6 6.1
2013-Oct-11 01:28N 42°37' E 008°12'7 6.0
2013-Oct-11 00:23N 42°42' E 008°18'5 5.6
2013-Oct-10 23:33N 42°45' E 008°22'5 5.2
2013-Oct-10 22:32N 42°49' E 008°27'5 5.0
2013-Oct-10 21:33N 42°52' E 008°32'5 5.0
2013-Oct-10 20:30N 42°56' E 008°37'5 4.6
2013-Oct-10 19:27N 42°60' E 008°41'5 4.9
2013-Oct-10 18:33N 43°03' E 008°46'6 5.4
2013-Oct-10 17:26N 43°07' E 008°51'5 5.2
2013-Oct-10 16:33N 43°10' E 008°56'9 4.6
2013-Oct-10 14:31N 43°17' E 009°05'5 5.0
2013-Oct-10 13:26N 43°21' E 009°10'5 5.2
2013-Oct-10 12:31N 43°25' E 009°14'5 5.5
2013-Oct-10 11:33N 43°28' E 009°19'7 6.8
2013-Oct-10 10:33N 43°33' E 009°26'9 8.9
2013-Oct-10 09:33N 43°40' E 009°34'9 9.0
2013-Oct-10 08:33N 43°46' E 009°43'9 9.0
2013-Oct-10 07:33N 43°53' E 009°51'9 9.4
2013-Oct-10 06:34N 43°60' E 010°00'3 2.9
2013-Oct-10 05:32N 44°02' E 010°03'0 0.0
2013-Oct-10 04:31N 44°02' E 010°03'0 0.0
2013-Oct-10 03:28N 44°02' E 010°03'0 0.0
2013-Oct-10 02:33N 44°02' E 010°03'0 0.0
2013-Oct-10 01:33N 44°02' E 010°03'0 0.0
2013-Oct-10 00:32N 44°02' E 010°03'0 0.0
2013-Oct-09 23:31N 44°02' E 010°03'0 0.0
2013-Oct-09 22:32N 44°02' E 010°03'0 0.0
2013-Oct-09 21:31N 44°02' E 010°03'0 0.0
2013-Oct-09 20:31N 44°02' E 010°03'0 0.0
2013-Oct-09 19:33N 44°02' E 010°03'0 0.0
2013-Oct-09 18:31N 44°02' E 010°03'0 0.0
2013-Oct-09 17:31N 44°02' E 010°03'0 0.0
2013-Oct-09 16:31N 44°02' E 010°03'0 0.0
2013-Oct-09 15:31N 44°02' E 010°03'0 0.0
2013-Oct-09 14:33N 44°02' E 010°03'0 0.0
2013-Oct-09 13:30N 44°02' E 010°03'0 0.0
2013-Oct-09 12:33N 44°02' E 010°03'0 0.0
2013-Oct-09 11:32N 44°02' E 010°03'0 0.0
2013-Oct-09 10:32N 44°02' E 010°03'0 0.0
2013-Oct-09 09:31N 44°02' E 010°03'0 0.0
2013-Oct-09 08:31N 44°02' E 010°03'0 0.0
2013-Oct-09 07:33N 44°02' E 010°03'0 0.0
2013-Oct-09 06:33N 44°02' E 010°03'0 0.0
2013-Oct-09 05:32N 44°02' E 010°03'0 0.0
2013-Oct-09 04:32N 44°02' E 010°03'0 0.0
2013-Oct-09 03:31N 44°02' E 010°03'0 0.0
2013-Oct-09 02:31N 44°02' E 010°03'0 0.0
2013-Oct-09 01:31N 44°02' E 010°03'0 0.0
2013-Oct-09 00:33N 44°02' E 010°03'0 0.0
2013-Oct-08 23:33N 44°02' E 010°03'0 0.0
2013-Oct-08 22:31N 44°02' E 010°03'0 0.0
2013-Oct-08 21:32N 44°02' E 010°03'0 0.0
2013-Oct-08 20:31N 44°02' E 010°03'0 0.0
2013-Oct-08 19:31N 44°02' E 010°03'0 0.0
2013-Oct-08 18:31N 44°02' E 010°03'0 0.0
2013-Oct-08 17:33N 44°02' E 010°03'0 0.0
2013-Oct-08 16:28N 44°02' E 010°03'0 0.0
2013-Oct-08 15:28N 44°02' E 010°03'0 0.0
2013-Oct-08 14:27N 44°02' E 010°03'0 0.0
2013-Oct-08 13:33N 44°02' E 010°03'0 0.0
2013-Oct-08 12:33N 44°02' E 010°03'0 0.0
2013-Oct-08 11:32N 44°02' E 010°03'0 0.0
2013-Oct-08 10:32N 44°02' E 010°03'0 0.0
2013-Oct-08 09:28N 44°02' E 010°03'0 0.0
2013-Oct-08 08:33N 44°02' E 010°03'0 0.0
2013-Oct-08 07:30N 44°02' E 010°03'0 0.0
2013-Oct-08 06:33N 44°02' E 010°03'0 0.0
2013-Oct-08 05:32N 44°02' E 010°03'0 0.0
2013-Oct-08 04:32N 44°02' E 010°03'0 0.0
2013-Oct-08 03:31N 44°02' E 010°03'0 0.0
2013-Oct-08 02:28N 44°02' E 010°03'0 0.0
2013-Oct-08 01:33N 44°02' E 010°03'0 0.0
2013-Oct-08 00:31N 44°02' E 010°03'0 0.0
2013-Oct-07 23:31N 44°02' E 010°03'0 0.0
2013-Oct-07 22:33N 44°02' E 010°03'0 0.0
2013-Oct-07 21:33N 44°02' E 010°03'0 0.0
2013-Oct-07 20:33N 44°02' E 010°03'0 0.0
2013-Oct-07 19:25N 44°02' E 010°03'0 0.0
2013-Oct-07 18:31N 44°02' E 010°03'0 0.0
2013-Oct-07 17:33N 44°02' E 010°03'0 0.0
2013-Oct-07 16:33N 44°02' E 010°03'0 0.0
2013-Oct-07 15:31N 44°02' E 010°03'0 0.0
2013-Oct-07 14:30N 44°02' E 010°03'0 0.0
2013-Oct-07 13:33N 44°02' E 010°03'0 0.0
2013-Oct-07 12:32N 44°02' E 010°03'0 0.0
2013-Oct-07 11:32N 44°02' E 010°03'0 0.0
2013-Oct-07 10:33N 44°02' E 010°03'0 0.0
2013-Oct-07 09:31N 44°02' E 010°03'0 0.0
2013-Oct-07 08:33N 44°02' E 010°03'0 0.0
2013-Oct-07 07:31N 44°02' E 010°03'0 0.0
2013-Oct-07 06:33N 44°02' E 010°03'0 0.0
2013-Oct-07 05:33N 44°02' E 010°03'0 0.0
2013-Oct-07 04:32N 44°02' E 010°03'0 0.0
2013-Oct-07 03:29N 44°02' E 010°03'0 0.0
2013-Oct-07 02:32N 44°02' E 010°03'0 0.0
2013-Oct-07 01:31N 44°02' E 010°03'0 0.0
2013-Oct-07 00:31N 44°02' E 010°03'0 0.0
2013-Oct-06 23:30N 44°02' E 010°03'0 0.0
2013-Oct-06 22:33N 44°02' E 010°03'0 0.0
2013-Oct-06 21:34N 44°02' E 010°03'0 0.0
2013-Oct-06 20:33N 44°02' E 010°03'0 0.0
2013-Oct-06 19:33N 44°02' E 010°03'0 0.0
2013-Oct-06 18:30N 44°02' E 010°03'0 0.0
2013-Oct-06 17:32N 44°02' E 010°03'0 0.0
2013-Oct-06 16:33N 44°02' E 010°03'0 0.0
2013-Oct-06 15:32N 44°02' E 010°03'0 0.0
2013-Oct-06 14:32N 44°02' E 010°03'0 0.0
2013-Oct-06 13:32N 44°02' E 010°03'0 0.0
2013-Oct-06 12:28N 44°02' E 010°03'0 0.0
2013-Oct-06 11:33N 44°02' E 010°03'0 0.0
2013-Oct-06 10:31N 44°02' E 010°03'0 0.0
2013-Oct-06 09:31N 44°02' E 010°03'0 0.0
2013-Oct-06 08:30N 44°02' E 010°03'0 0.0
2013-Oct-06 07:33N 44°02' E 010°03'0 0.0
2013-Oct-06 06:32N 44°02' E 010°03'0 0.0
2013-Oct-06 05:32N 44°02' E 010°03'0 0.0
2013-Oct-06 04:31N 44°02' E 010°03'0 0.0
2013-Oct-06 03:31N 44°02' E 010°03'0 0.0
2013-Oct-06 02:31N 44°02' E 010°03'0 0.0
2013-Oct-06 01:33N 44°02' E 010°03'0 0.0
2013-Oct-06 00:33N 44°02' E 010°03'0 0.0
2013-Oct-05 23:33N 44°02' E 010°03'0 0.0
2013-Oct-05 22:33N 44°02' E 010°03'0 0.0
2013-Oct-05 21:33N 44°02' E 010°03'0 0.0
2013-Oct-05 20:32N 44°02' E 010°03'0 0.0
2013-Oct-05 19:26N 44°02' E 010°03'0 0.0
2013-Oct-05 18:31N 44°02' E 010°03'0 0.0
2013-Oct-05 17:31N 44°02' E 010°03'0 0.0
2013-Oct-05 16:33N 44°02' E 010°03'0 0.0
2013-Oct-05 15:33N 44°02' E 010°03'0 0.0
2013-Oct-05 14:33N 44°02' E 010°03'0 0.0
2013-Oct-05 13:32N 44°02' E 010°03'0 0.0
2013-Oct-05 12:32N 44°02' E 010°03'0 0.0
2013-Oct-05 11:31N 44°02' E 010°03'0 0.0
2013-Oct-05 10:31N 44°02' E 010°03'0 0.0
2013-Oct-05 09:33N 44°02' E 010°03'0 0.0
2013-Oct-05 08:33N 44°02' E 010°03'0 0.0
2013-Oct-05 07:30N 44°02' E 010°03'0 0.0
2013-Oct-05 06:32N 44°02' E 010°03'0 0.0
2013-Oct-05 05:29N 44°02' E 010°03'0 0.0
2013-Oct-05 04:31N 44°02' E 010°03'0 0.0
2013-Oct-05 03:31N 44°02' E 010°03'0 0.0
2013-Oct-05 02:33N 44°02' E 010°03'0 0.0
2013-Oct-05 01:33N 44°02' E 010°03'0 0.0
2013-Oct-05 00:33N 44°02' E 010°03'0 0.0
2013-Oct-04 23:32N 44°02' E 010°03'0 0.0
2013-Oct-04 22:32N 44°02' E 010°03'0 0.0
2013-Oct-04 21:33N 44°02' E 010°03'0 0.0
2013-Oct-04 20:32N 44°02' E 010°03'0 0.0
2013-Oct-04 19:32N 44°02' E 010°03'0 0.0
2013-Oct-04 18:32N 44°02' E 010°03'0 0.0
2013-Oct-04 17:32N 44°02' E 010°03'0 0.0
2013-Oct-04 16:28N 44°02' E 010°03'0 0.0
2013-Oct-04 15:33N 44°02' E 010°03'0 0.0
2013-Oct-04 14:33N 44°02' E 010°03'0 0.0
2013-Oct-04 13:30N 44°02' E 010°03'0 0.0
2013-Oct-04 12:32N 44°02' E 010°03'0 0.0
2013-Oct-04 11:31N 44°02' E 010°03'0 0.0
2013-Oct-04 10:33N 44°02' E 010°03'0 0.0
2013-Oct-04 09:31N 44°02' E 010°03'0 0.0
2013-Oct-04 08:31N 44°02' E 010°03'0 0.0
2013-Oct-04 07:33N 44°02' E 010°03'0 0.0
2013-Oct-04 06:33N 44°02' E 010°03'0 0.0
2013-Oct-04 05:32N 44°02' E 010°03'0 0.0
2013-Oct-04 04:31N 44°02' E 010°03'0 0.0
2013-Oct-04 03:31N 44°02' E 010°03'0 0.0
2013-Oct-04 02:31N 44°02' E 010°03'0 0.0
2013-Oct-04 01:31N 44°02' E 010°03'0 0.0
2013-Oct-04 00:31N 44°02' E 010°03'0 0.0
2013-Oct-03 23:31N 44°02' E 010°03'0 0.0
2013-Oct-03 22:31N 44°02' E 010°03'0 0.0
2013-Oct-03 21:31N 44°02' E 010°03'0 0.0
2013-Oct-03 20:33N 44°02' E 010°03'0 0.0
2013-Oct-03 19:33N 44°02' E 010°03'0 0.0
2013-Oct-03 18:33N 44°02' E 010°03'0 0.0
2013-Oct-03 17:32N 44°02' E 010°03'0 0.0
2013-Oct-03 16:32N 44°02' E 010°03'0 0.0
2013-Oct-03 15:29N 44°02' E 010°03'0 0.0
2013-Oct-03 14:31N 44°02' E 010°03'0 0.0
2013-Oct-03 13:31N 44°02' E 010°03'0 0.0
2013-Oct-03 12:33N 44°02' E 010°03'0 0.0
2013-Oct-03 11:33N 44°02' E 010°03'0 0.0
2013-Oct-03 10:32N 44°02' E 010°03'0 0.0
2013-Oct-03 09:29N 44°02' E 010°03'0 0.0
2013-Oct-03 08:32N 44°02' E 010°03'0 0.0
2013-Oct-03 07:31N 44°02' E 010°03'0 0.0
2013-Oct-03 06:28N 44°02' E 010°03'0 0.0
2013-Oct-03 05:30N 44°02' E 010°03'0 0.0
2013-Oct-03 04:30N 44°02' E 010°03'0 0.0
2013-Oct-03 03:32N 44°02' E 010°03'0 0.0
2013-Oct-03 02:32N 44°02' E 010°03'0 0.0
2013-Oct-03 01:31N 44°02' E 010°03'0 0.0
2013-Oct-03 00:33N 44°02' E 010°03'0 0.0
2013-Oct-02 23:33N 44°02' E 010°03'0 0.0
2013-Oct-02 22:32N 44°02' E 010°03'0 0.0
2013-Oct-02 21:32N 44°02' E 010°03'0 0.0
2013-Oct-02 20:28N 44°02' E 010°03'0 0.0
2013-Oct-02 18:31N 44°02' E 010°03'0 0.0
2013-Oct-02 17:33N 44°02' E 010°03'0 0.0
2013-Oct-02 16:33N 44°02' E 010°03'  

Dump ship's entire track history

sailing weather and tide predictions

Barbarossa — ZDFA4 — position and weather